Troy, North Carolina
Current Conditions -  °F | °C
As of 2:15 PM on Monday 22 Dec 2014 (Local Time) from KVUJ Reporting Station
Haze Haze  
Wind Chill: 31°   Ceiling: 500
Heat Index: 38°   Visibility: 4mi
Dew Point: 38°   Wind: 9mph
Humidity: 100%   Direction: 40°NE
Pressure: 30.07"   Gusts: NA
Location:  35.36°N, 79.89°W
Report Text: KVUJ 221915Z AUTO 04008KT 4SM BR OVC005 03/03 A3007 RMK AO2 T00310031
Loading
Personal Weather Stations






























Interactive Weather Map New forecast layout! Learn more

10-Day Weather Forecast

Advertisements
Track Severe Weather on mobile